Lebanon, VA (24266)

9:23 AM EST on December 29, 2014 (GMT -0500)
White's Mill | Change Station
CLOSE
Current Station
Personal Weather Station
Location: Abingdon, VA
Elevation: 2113 ft
Nearby Weather Stations

Elev 2113 ft 36.77 °N, 81.98 °W | Updated 2 minutes ago

Fog
Fog
43.6 °F
Feels Like 44 °F
N
0.0
Wind Variable Wind from North
Gusts 1.0 mph

Today
High -- | Low -- °F
--% Chance of Precip.
Yesterday
High -- | Low -- °F
Precip. -- in
7:40 AM 5:20 PM
First Quarter, 59% visible
Pressure 30.08 in
Visibility 4.0 miles
Clouds Overcast 200 ft
Windchill 44 °F
Dew Point 43 °F
Humidity 97%
Rainfall 0.20 in
Snow Depth Not available.
UV 0 out of 12
Pollen .10 out of 12
Air Quality Not available.
Flu Activity Not available.
METAR KVJI 291415Z AUTO 00000KT 4SM BR OVC002 08/08 A3008 RMK AO2 T00800080

More Conditions Fewer Conditions

Pressure 30.08 in
Visibility 4.0 miles
Clouds Overcast 200 ft
Windchill 44 °F
Dew Point 43 °F
Humidity 97%
Rainfall 0.20 in
Snow Depth Not available.
UV 0 out of 12
Pollen .10 out of 12
Air Quality Not available.
Flu Activity Not available.
METAR KVJI 291415Z AUTO 00000KT 4SM BR OVC002 08/08 A3008 RMK AO2 T00800080

More Conditions Fewer Conditions

10-Day Weather Forecast

Almanac

Astronomy

Dec. 29, 2014 Rise Set
Actual Time
Civil Twilight
Nautical Twilight
Astronomical Twilight
Moon
Length of Visible Light
Length of Day
Tomorrow will be .
, % of the Moon is Illuminated

Today's Extremes

State Highs State Lows

Community

WunderPhotos

Upload Photos

1,781,587 photos uploaded!

WunderBlogs® & News

Nearby

Air Quality

  Air Quality AQ Index Pollutant
Not available.

Snow Depth

Station Depth Elevation

Earthquake Activity

City Distance Mag. Time & Date
Minimum magnitude displayed is 2.5.

Coastal Water Temperatures

Place Temperature

Nearby Weather Stations